createdAt,value
2018-12-02T00:00:45.841Z,6.00
2018-12-02T00:03:13.283Z,6.37
2018-12-02T00:05:40.686Z,6.40
2018-12-02T00:08:08.201Z,6.55
2018-12-02T00:10:35.880Z,6.30
2018-12-02T00:13:03.259Z,6.10
2018-12-02T00:15:30.688Z,6.80
2018-12-02T00:17:59.753Z,6.67
2018-12-02T00:20:28.085Z,6.70
2018-12-02T00:22:55.537Z,6.17
2018-12-02T00:25:23.197Z,6.80
2018-12-02T00:27:54.143Z,7.20
2018-12-02T00:30:22.411Z,6.40
2018-12-02T00:32:50.179Z,6.80
2018-12-02T00:35:18.002Z,7.30
2018-12-02T00:37:46.508Z,6.85
2018-12-02T00:40:16.548Z,6.70
2018-12-02T00:42:44.520Z,7.20
2018-12-02T00:45:12.456Z,7.37
2018-12-02T00:47:40.163Z,7.45
2018-12-02T00:50:08.675Z,7.22
2018-12-02T00:52:36.906Z,7.67
2018-12-02T00:55:04.986Z,7.50
2018-12-02T00:57:33.354Z,7.72
2018-12-02T01:00:00.695Z,7.70
2018-12-02T01:02:28.187Z,7.47
2018-12-02T01:04:55.603Z,7.40
2018-12-02T01:07:22.992Z,7.80
2018-12-02T01:09:50.392Z,7.70
2018-12-02T01:12:17.735Z,7.75
2018-12-02T01:14:45.107Z,8.05
2018-12-02T01:17:13.115Z,7.60
2018-12-02T01:19:40.882Z,7.80
2018-12-02T01:22:08.674Z,8.00
2018-12-02T01:24:36.316Z,7.95
2018-12-02T01:27:03.744Z,7.20
2018-12-02T01:29:31.330Z,8.30
2018-12-02T01:32:00.524Z,7.95
2018-12-02T01:34:27.937Z,8.28
2018-12-02T01:36:55.319Z,8.33
2018-12-02T01:39:22.943Z,8.55
2018-12-02T01:41:50.727Z,8.50
2018-12-02T01:44:19.014Z,9.20
2018-12-02T01:46:46.475Z,9.00
2018-12-02T01:49:13.828Z,8.80
2018-12-02T01:51:41.415Z,9.30
2018-12-02T01:54:08.816Z,10.58
2018-12-02T01:56:36.234Z,10.10
2018-12-02T01:59:03.892Z,9.95
2018-12-02T02:01:31.324Z,10.00
2018-12-02T02:03:58.834Z,10.30
2018-12-02T02:06:26.297Z,9.75
2018-12-02T02:08:53.683Z,11.10
2018-12-02T02:11:21.388Z,10.50
2018-12-02T02:13:48.842Z,11.00
2018-12-02T02:16:16.240Z,10.90
2018-12-02T02:18:43.972Z,10.40
2018-12-02T02:21:11.799Z,10.38
2018-12-02T02:23:39.504Z,10.40
2018-12-02T02:26:06.949Z,10.63
2018-12-02T02:28:34.922Z,10.90
2018-12-02T02:31:02.321Z,11.15
2018-12-02T02:33:30.355Z,10.50
2018-12-02T02:35:57.752Z,10.48
2018-12-02T02:38:25.122Z,10.77
2018-12-02T02:40:52.771Z,10.43
2018-12-02T02:43:20.123Z,9.77
2018-12-02T02:45:47.930Z,10.68
2018-12-02T02:48:15.307Z,10.90
2018-12-02T02:50:42.629Z,10.30
2018-12-02T02:53:10.006Z,10.50
2018-12-02T02:55:37.618Z,10.03
2018-12-02T02:58:04.954Z,10.50
2018-12-02T03:00:32.698Z,10.00
2018-12-02T03:03:00.663Z,10.10
2018-12-02T03:05:28.062Z,9.53
2018-12-02T03:07:55.482Z,9.58
2018-12-02T03:10:23.444Z,8.90
2018-12-02T03:12:51.333Z,9.00
2018-12-02T03:15:19.425Z,8.60
2018-12-02T03:17:47.239Z,8.70
2018-12-02T03:20:19.384Z,8.93
2018-12-02T03:22:48.226Z,8.90
2018-12-02T03:25:16.484Z,8.88
2018-12-02T03:27:44.149Z,8.20
2018-12-02T03:30:12.229Z,8.65
2018-12-02T03:32:39.981Z,8.55
2018-12-02T03:35:08.196Z,9.20
2018-12-02T03:37:35.913Z,7.72
2018-12-02T03:40:03.803Z,8.35
2018-12-02T03:42:32.344Z,8.20
2018-12-02T03:44:59.702Z,8.25
2018-12-02T03:47:27.092Z,8.20
2018-12-02T03:49:55.042Z,7.80
2018-12-02T03:52:22.723Z,7.40
2018-12-02T03:54:50.788Z,7.20
2018-12-02T03:57:18.510Z,7.20
2018-12-02T03:59:46.424Z,7.28
2018-12-02T04:02:13.771Z,7.50
2018-12-02T04:04:41.204Z,7.73
2018-12-02T04:07:09.919Z,7.45
2018-12-02T04:09:37.483Z,7.53
2018-12-02T04:12:05.113Z,7.08
2018-12-02T04:14:33.280Z,7.08
2018-12-02T04:17:01.178Z,6.70
2018-12-02T04:19:29.152Z,7.15
2018-12-02T04:21:57.338Z,6.47
2018-12-02T04:24:24.775Z,6.80
2018-12-02T04:26:52.764Z,6.90
2018-12-02T04:29:20.123Z,6.30
2018-12-02T04:31:47.771Z,6.90
2018-12-02T04:34:16.463Z,6.80
2018-12-02T04:36:44.845Z,6.60
2018-12-02T04:39:12.313Z,6.60
2018-12-02T04:41:40.410Z,6.60
2018-12-02T04:44:08.742Z,6.78
2018-12-02T04:46:37.207Z,6.80
2018-12-02T04:49:04.594Z,6.87
2018-12-02T04:51:32.003Z,7.50
2018-12-02T04:53:59.420Z,6.70
2018-12-02T04:56:26.873Z,6.78
2018-12-02T04:58:54.286Z,7.58
2018-12-02T05:01:22.596Z,6.80
2018-12-02T05:03:50.011Z,6.35
2018-12-02T05:06:17.828Z,6.80
2018-12-02T05:08:45.582Z,7.30
2018-12-02T05:11:13.241Z,6.78
2018-12-02T05:13:40.955Z,6.50
2018-12-02T05:16:08.571Z,6.83
2018-12-02T05:18:35.931Z,7.10
2018-12-02T05:21:04.361Z,6.53
2018-12-02T05:23:31.718Z,6.30
2018-12-02T05:25:59.635Z,6.90
2018-12-02T05:28:27.052Z,6.30
2018-12-02T05:30:54.525Z,6.50
2018-12-02T05:33:22.253Z,6.67
2018-12-02T05:35:49.669Z,6.50
2018-12-02T05:38:17.064Z,6.80
2018-12-02T05:40:44.449Z,6.65
2018-12-02T05:43:12.463Z,6.30
2018-12-02T05:45:39.845Z,6.55
2018-12-02T05:48:07.243Z,6.20
2018-12-02T05:50:35.279Z,6.25
2018-12-02T05:53:02.712Z,6.58
2018-12-02T05:55:32.125Z,6.00
2018-12-02T05:57:59.752Z,6.05
2018-12-02T06:00:27.412Z,5.70
2018-12-02T06:02:55.923Z,5.70
2018-12-02T06:05:23.651Z,5.62
2018-12-02T06:07:51.020Z,5.70
2018-12-02T06:10:19.291Z,5.62
2018-12-02T06:12:46.822Z,5.70
2018-12-02T06:15:14.742Z,5.60
2018-12-02T06:17:42.600Z,5.60
2018-12-02T06:20:11.428Z,5.80
2018-12-02T06:22:38.890Z,5.50
2018-12-02T06:25:06.854Z,5.40
2018-12-02T06:27:34.231Z,6.00
2018-12-02T06:30:01.727Z,5.50
2018-12-02T06:32:29.086Z,5.65
2018-12-02T06:34:56.473Z,5.80
2018-12-02T06:37:23.813Z,5.90
2018-12-02T06:39:51.463Z,6.00
2018-12-02T06:42:19.518Z,6.40
2018-12-02T06:44:47.204Z,6.83
2018-12-02T06:47:15.977Z,6.20
2018-12-02T06:49:43.488Z,6.37
2018-12-02T06:52:10.943Z,6.55
2018-12-02T06:54:40.279Z,6.70
2018-12-02T06:57:11.157Z,6.67
2018-12-02T06:59:42.559Z,6.33
2018-12-02T07:02:22.919Z,6.62
2018-12-02T07:04:50.745Z,6.70
2018-12-02T07:07:18.438Z,7.12
2018-12-02T07:09:46.638Z,6.70
2018-12-02T07:12:13.974Z,7.00
2018-12-02T07:14:41.729Z,7.10
2018-12-02T07:17:09.107Z,6.85
2018-12-02T07:19:41.113Z,7.08
2018-12-02T07:22:15.756Z,7.05
2018-12-02T07:24:45.058Z,6.70
2018-12-02T07:27:14.387Z,7.10
2018-12-02T07:29:41.808Z,7.25
2018-12-02T07:32:09.534Z,6.85
2018-12-02T07:34:37.029Z,6.75
2018-12-02T07:37:07.736Z,7.40
2018-12-02T07:39:42.568Z,7.40
2018-12-02T07:42:10.543Z,7.10
2018-12-02T07:44:38.188Z,6.75
2018-12-02T07:47:05.887Z,6.92
2018-12-02T07:49:33.290Z,6.60
2018-12-02T07:52:00.969Z,7.10
2018-12-02T07:54:28.623Z,6.30
2018-12-02T07:56:56.786Z,6.10
2018-12-02T07:59:24.148Z,6.20
2018-12-02T08:01:52.199Z,6.10
2018-12-02T08:04:19.552Z,6.10
2018-12-02T08:06:47.303Z,6.47
2018-12-02T08:09:15.216Z,5.80
2018-12-02T08:11:43.510Z,5.72
2018-12-02T08:14:10.851Z,6.20
2018-12-02T08:16:38.249Z,6.10
2018-12-02T08:19:05.812Z,6.70
2018-12-02T08:21:33.176Z,6.60
2018-12-02T08:24:00.981Z,7.15
2018-12-02T08:26:28.344Z,7.30
2018-12-02T08:28:55.735Z,7.45
2018-12-02T08:31:23.475Z,7.67
2018-12-02T08:33:50.867Z,8.10
2018-12-02T08:36:18.832Z,7.72
2018-12-02T08:38:46.552Z,7.10
2018-12-02T08:41:13.995Z,7.75
2018-12-02T08:43:41.571Z,7.60
2018-12-02T08:46:10.420Z,8.00
2018-12-02T08:48:38.228Z,8.25
2018-12-02T08:51:06.883Z,8.18
2018-12-02T08:53:34.571Z,9.08
2018-12-02T08:56:01.991Z,9.00
2018-12-02T08:58:30.109Z,8.35
2018-12-02T09:00:58.696Z,8.60
2018-12-02T09:03:27.188Z,9.30
2018-12-02T09:05:54.671Z,9.68
2018-12-02T09:08:26.121Z,8.93
2018-12-02T09:10:53.609Z,9.83
2018-12-02T09:13:21.318Z,9.00
2018-12-02T09:15:48.836Z,8.70
2018-12-02T09:18:16.224Z,8.90
2018-12-02T09:20:44.167Z,8.80
2018-12-02T09:23:13.137Z,8.93
2018-12-02T09:25:39.451Z,9.00
2018-12-02T09:28:07.758Z,9.00
2018-12-02T09:30:36.247Z,8.98
2018-12-02T09:33:03.630Z,9.33
2018-12-02T09:35:31.709Z,9.90
2018-12-02T09:37:59.470Z,10.00
2018-12-02T09:40:27.211Z,9.20
2018-12-02T09:42:55.720Z,9.93
2018-12-02T09:45:24.707Z,9.95
2018-12-02T09:47:52.574Z,9.90
2018-12-02T09:50:20.333Z,9.60
2018-12-02T09:52:47.732Z,9.90
2018-12-02T09:55:20.908Z,9.80
2018-12-02T09:57:48.355Z,10.70
2018-12-02T10:00:16.663Z,9.88
2018-12-02T10:02:44.045Z,10.50
2018-12-02T10:05:11.490Z,10.13
2018-12-02T10:07:38.903Z,10.30
2018-12-02T10:10:11.047Z,10.00
2018-12-02T10:12:39.846Z,10.50
2018-12-02T10:15:10.991Z,10.70
2018-12-02T10:17:38.707Z,10.08
2018-12-02T10:20:07.387Z,10.30
2018-12-02T10:22:35.053Z,9.53
2018-12-02T10:25:02.540Z,9.95
2018-12-02T10:27:30.271Z,10.15
2018-12-02T10:29:57.667Z,9.90
2018-12-02T10:32:25.551Z,9.70
2018-12-02T10:34:53.341Z,9.30
2018-12-02T10:37:21.363Z,10.00
2018-12-02T10:39:51.311Z,9.70
2018-12-02T10:42:19.366Z,9.90
2018-12-02T10:44:48.045Z,9.70
2018-12-02T10:47:18.578Z,10.05
2018-12-02T10:49:46.941Z,10.20
2018-12-02T10:52:14.640Z,10.15
2018-12-02T10:54:41.999Z,9.40
2018-12-02T10:57:09.756Z,9.93
2018-12-02T10:59:37.523Z,13.38
2018-12-02T11:02:10.250Z,10.80
2018-12-02T11:04:37.964Z,9.80
2018-12-02T11:07:06.067Z,10.10
2018-12-02T11:09:33.792Z,9.80
2018-12-02T11:12:01.151Z,9.80
2018-12-02T11:14:29.339Z,9.90
2018-12-02T11:16:57.367Z,9.88
2018-12-02T11:19:24.765Z,9.80
2018-12-02T11:21:52.152Z,10.30
2018-12-02T11:24:20.323Z,10.10
2018-12-02T11:26:47.730Z,10.03
2018-12-02T11:29:15.110Z,10.90
2018-12-02T11:31:43.367Z,13.65
2018-12-02T11:34:10.986Z,10.40
2018-12-02T11:36:38.427Z,10.95
2018-12-02T11:39:08.589Z,10.85
2018-12-02T11:41:35.984Z,10.90
2018-12-02T11:44:03.422Z,10.98
2018-12-02T11:46:31.020Z,9.60
2018-12-02T11:48:58.437Z,10.10
2018-12-02T11:51:25.841Z,11.18
2018-12-02T11:53:54.805Z,9.50
2018-12-02T11:56:22.467Z,10.30
2018-12-02T11:58:49.856Z,9.60
2018-12-02T12:01:17.524Z,10.43
2018-12-02T12:03:44.924Z,9.73
2018-12-02T12:06:12.912Z,9.98
2018-12-02T12:08:40.345Z,10.05
2018-12-02T12:11:08.679Z,9.77
2018-12-02T12:13:36.718Z,9.30
2018-12-02T12:16:04.387Z,9.63
2018-12-02T12:18:31.736Z,9.00
2018-12-02T12:20:59.143Z,9.80
2018-12-02T12:23:26.580Z,9.80
2018-12-02T12:25:54.021Z,10.20
2018-12-02T12:28:21.429Z,9.60
2018-12-02T12:30:48.848Z,9.00
2018-12-02T12:33:17.000Z,9.33
2018-12-02T12:35:47.235Z,9.50
2018-12-02T12:38:14.563Z,9.48
2018-12-02T12:40:43.502Z,9.90
2018-12-02T12:43:14.764Z,8.90
2018-12-02T12:45:42.781Z,9.03
2018-12-02T12:48:10.187Z,9.00
2018-12-02T12:50:37.592Z,9.30
2018-12-02T12:53:06.032Z,11.90
2018-12-02T12:55:34.134Z,9.68
2018-12-02T12:58:01.520Z,8.93
2018-12-02T13:00:29.168Z,9.28
2018-12-02T13:02:57.139Z,9.20
2018-12-02T13:05:25.087Z,9.38
2018-12-02T13:07:52.767Z,9.20
2018-12-02T13:10:20.257Z,9.10
2018-12-02T13:12:48.075Z,9.18
2018-12-02T13:15:18.518Z,13.50
2018-12-02T13:17:46.985Z,10.43
2018-12-02T13:20:15.077Z,9.85
2018-12-02T13:22:42.734Z,8.83
2018-12-02T13:25:11.140Z,8.87
2018-12-02T13:27:38.740Z,9.05
2018-12-02T13:30:08.585Z,8.40
2018-12-02T13:32:36.316Z,8.40
2018-12-02T13:35:13.492Z,7.95
2018-12-02T13:37:41.509Z,8.40
2018-12-02T13:40:10.861Z,8.00
2018-12-02T13:42:38.509Z,8.20
2018-12-02T13:45:08.438Z,10.10
2018-12-02T13:47:36.056Z,9.00
2018-12-02T13:50:03.680Z,10.25
2018-12-02T13:52:31.226Z,8.98
2018-12-02T13:54:58.899Z,8.60
2018-12-02T13:57:26.574Z,8.73
2018-12-02T13:59:54.226Z,7.97
2018-12-02T14:02:22.196Z,8.98
2018-12-02T14:04:50.090Z,8.20
2018-12-02T14:07:17.671Z,8.30
2018-12-02T14:09:45.317Z,8.28
2018-12-02T14:12:12.715Z,7.83
2018-12-02T14:14:41.388Z,8.10
2018-12-02T14:17:10.164Z,8.40
2018-12-02T14:19:38.395Z,8.50
2018-12-02T14:22:06.294Z,9.33
2018-12-02T14:24:34.585Z,8.33
2018-12-02T14:27:02.338Z,8.20
2018-12-02T14:29:30.890Z,8.30
2018-12-02T14:31:59.299Z,9.18
2018-12-02T14:34:26.620Z,8.60
2018-12-02T14:36:53.997Z,8.20
2018-12-02T14:39:21.384Z,8.53
2018-12-02T14:41:48.892Z,9.40
2018-12-02T14:44:16.292Z,8.35
2018-12-02T14:46:43.733Z,8.88
2018-12-02T14:49:11.483Z,9.10
2018-12-02T14:51:39.280Z,9.70
2018-12-02T14:54:07.249Z,8.75
2018-12-02T14:56:35.397Z,8.80
2018-12-02T14:59:02.741Z,8.00
2018-12-02T15:01:30.817Z,7.80
2018-12-02T15:03:58.182Z,8.03
2018-12-02T15:06:25.580Z,8.40
2018-12-02T15:08:52.992Z,7.90
2018-12-02T15:11:21.538Z,9.00
2018-12-02T15:13:49.270Z,9.70
2018-12-02T15:16:17.268Z,8.50
2018-12-02T15:18:46.325Z,8.80
2018-12-02T15:21:13.691Z,8.20
2018-12-02T15:23:41.081Z,8.48
2018-12-02T15:26:08.739Z,8.25
2018-12-02T15:28:36.161Z,8.40
2018-12-02T15:31:03.558Z,8.53
2018-12-02T15:33:31.463Z,8.60
2018-12-02T15:35:58.848Z,8.00
2018-12-02T15:38:26.201Z,7.60
2018-12-02T15:40:53.854Z,8.00
2018-12-02T15:43:21.505Z,8.60
2018-12-02T15:45:49.088Z,8.03
2018-12-02T15:48:16.447Z,7.70
2018-12-02T15:50:44.091Z,7.53
2018-12-02T15:53:11.531Z,8.20
2018-12-02T15:55:38.871Z,7.80
2018-12-02T15:58:07.154Z,7.97
2018-12-02T16:00:35.652Z,8.20
2018-12-02T16:03:03.112Z,7.90
2018-12-02T16:05:30.574Z,8.38
2018-12-02T16:07:57.976Z,8.20
2018-12-02T16:10:29.123Z,7.35
2018-12-02T16:12:56.510Z,7.62
2018-12-02T16:15:32.805Z,8.10
2018-12-02T16:18:00.652Z,7.80
2018-12-02T16:20:29.069Z,7.87
2018-12-02T16:22:56.507Z,8.10
2018-12-02T16:25:23.844Z,7.70
2018-12-02T16:27:51.819Z,7.78
2018-12-02T16:30:20.191Z,7.90
2018-12-02T16:32:49.565Z,8.33
2018-12-02T16:35:17.401Z,8.40
2018-12-02T16:37:46.061Z,8.60
2018-12-02T16:40:14.264Z,8.60
2018-12-02T16:42:41.675Z,9.40
2018-12-02T16:45:13.845Z,8.45
2018-12-02T16:47:48.230Z,8.20
2018-12-02T16:50:17.629Z,8.28
2018-12-02T16:52:45.003Z,9.00
2018-12-02T16:55:13.386Z,9.23
2018-12-02T16:57:41.297Z,9.20
2018-12-02T17:00:11.475Z,8.90
2018-12-02T17:02:38.884Z,9.05
2018-12-02T17:05:07.927Z,9.03
2018-12-02T17:07:35.320Z,8.70
2018-12-02T17:10:02.732Z,9.10
2018-12-02T17:12:30.201Z,9.23
2018-12-02T17:14:57.610Z,8.43
2018-12-02T17:17:25.031Z,8.30
2018-12-02T17:19:52.407Z,8.20
2018-12-02T17:22:19.752Z,8.73
2018-12-02T17:24:47.489Z,8.70
2018-12-02T17:27:15.161Z,9.20
2018-12-02T17:29:42.540Z,10.80
2018-12-02T17:32:10.840Z,12.20
2018-12-02T17:34:39.096Z,11.95
2018-12-02T17:37:06.558Z,9.45
2018-12-02T17:39:34.932Z,9.67
2018-12-02T17:42:03.389Z,9.50
2018-12-02T17:44:31.082Z,11.38
2018-12-02T17:46:58.452Z,11.68
2018-12-02T17:49:26.032Z,10.40
2018-12-02T17:51:53.483Z,11.35
2018-12-02T17:54:21.224Z,11.90
2018-12-02T17:56:49.816Z,12.00
2018-12-02T17:59:17.200Z,12.50
2018-12-02T18:01:44.879Z,12.20
2018-12-02T18:04:12.271Z,12.70
2018-12-02T18:06:40.355Z,12.15
2018-12-02T18:09:11.396Z,12.30
2018-12-02T18:11:38.853Z,12.80
2018-12-02T18:14:06.651Z,12.57
2018-12-02T18:16:34.561Z,12.75
2018-12-02T18:19:02.342Z,13.13
2018-12-02T18:21:30.098Z,13.90
2018-12-02T18:23:57.633Z,14.10
2018-12-02T18:26:25.147Z,13.93
2018-12-02T18:28:53.824Z,14.70
2018-12-02T18:31:21.181Z,14.50
2018-12-02T18:33:49.010Z,14.28
2018-12-02T18:36:17.428Z,14.63
2018-12-02T18:38:45.659Z,13.72
2018-12-02T18:41:15.108Z,13.50
2018-12-02T18:43:42.532Z,13.90
2018-12-02T18:46:10.382Z,12.58
2018-12-02T18:48:38.282Z,13.60
2018-12-02T18:51:06.533Z,12.90
2018-12-02T18:53:34.445Z,13.72
2018-12-02T18:56:02.154Z,14.07
2018-12-02T18:58:29.901Z,13.60
2018-12-02T19:00:57.526Z,14.87
2018-12-02T19:03:25.611Z,13.85
2018-12-02T19:05:53.272Z,14.95
2018-12-02T19:08:20.652Z,14.40
2018-12-02T19:10:51.677Z,15.17
2018-12-02T19:13:19.197Z,14.47
2018-12-02T19:15:46.587Z,15.30
2018-12-02T19:18:14.423Z,16.32
2018-12-02T19:20:41.805Z,15.78
2018-12-02T19:23:10.132Z,15.68
2018-12-02T19:25:38.676Z,16.67
2018-12-02T19:28:06.695Z,17.45
2018-12-02T19:30:34.158Z,16.80
2018-12-02T19:33:01.850Z,16.25
2018-12-02T19:35:30.128Z,17.42
2018-12-02T19:37:58.812Z,16.45
2018-12-02T19:40:26.227Z,16.05
2018-12-02T19:42:53.836Z,16.48
2018-12-02T19:45:21.457Z,16.20
2018-12-02T19:47:49.094Z,15.85
2018-12-02T19:50:17.075Z,15.30
2018-12-02T19:52:44.496Z,15.20
2018-12-02T19:55:12.452Z,14.90
2018-12-02T19:57:40.205Z,15.50
2018-12-02T20:00:13.615Z,15.40
2018-12-02T20:02:41.022Z,14.83
2018-12-02T20:05:08.425Z,15.20
2018-12-02T20:07:36.161Z,14.90
2018-12-02T20:10:04.363Z,15.05
2018-12-02T20:12:31.993Z,14.60
2018-12-02T20:14:59.413Z,14.75
2018-12-02T20:17:26.920Z,14.53
2018-12-02T20:20:00.362Z,14.10
2018-12-02T20:22:28.099Z,14.38
2018-12-02T20:24:56.624Z,20.35
2018-12-02T20:27:24.220Z,14.73
2018-12-02T20:29:51.667Z,14.07
2018-12-02T20:32:19.030Z,15.18
2018-12-02T20:34:46.422Z,15.23
2018-12-02T20:37:13.867Z,14.15
2018-12-02T20:39:42.859Z,14.30
2018-12-02T20:42:10.228Z,14.50
2018-12-02T20:44:37.909Z,14.33
2018-12-02T20:47:05.727Z,14.05
2018-12-02T20:49:34.029Z,13.45
2018-12-02T20:52:01.390Z,12.93
2018-12-02T20:54:29.177Z,14.00
2018-12-02T20:56:56.672Z,13.75
2018-12-02T20:59:24.040Z,12.85
2018-12-02T21:01:52.508Z,18.95
2018-12-02T21:04:20.227Z,16.27
2018-12-02T21:06:48.412Z,11.97
2018-12-02T21:09:15.940Z,14.68
2018-12-02T21:11:43.314Z,11.00
2018-12-02T21:14:11.040Z,12.07
2018-12-02T21:16:38.526Z,11.80
2018-12-02T21:19:05.940Z,12.15
2018-12-02T21:21:37.101Z,12.95
2018-12-02T21:24:01.764Z,11.90
2018-12-02T21:26:29.474Z,12.45
2018-12-02T21:28:56.848Z,13.07
2018-12-02T21:31:24.175Z,14.50
2018-12-02T21:33:51.602Z,15.03
2018-12-02T21:36:19.412Z,14.70
2018-12-02T21:38:47.406Z,16.25
2018-12-02T21:41:14.846Z,15.60
2018-12-02T21:43:42.572Z,16.80
2018-12-02T21:46:10.252Z,15.60
2018-12-02T21:48:37.652Z,16.10
2018-12-02T21:51:05.384Z,15.85
2018-12-02T21:53:33.147Z,16.50
2018-12-02T21:56:00.557Z,15.32
2018-12-02T21:58:28.579Z,14.40
2018-12-02T22:01:01.458Z,15.18
2018-12-02T22:03:28.901Z,15.63
2018-12-02T22:05:56.790Z,15.57
2018-12-02T22:08:24.864Z,14.40
2018-12-02T22:10:52.369Z,13.58
2018-12-02T22:13:19.891Z,12.90
2018-12-02T22:15:47.300Z,12.85
2018-12-02T22:18:15.005Z,12.70
2018-12-02T22:20:43.137Z,12.15
2018-12-02T22:23:10.756Z,11.80
2018-12-02T22:25:38.564Z,11.80
2018-12-02T22:28:07.376Z,12.20
2018-12-02T22:30:35.152Z,10.88
2018-12-02T22:33:02.550Z,11.50
2018-12-02T22:35:30.271Z,11.10
2018-12-02T22:37:57.681Z,11.27
2018-12-02T22:40:25.499Z,11.75
2018-12-02T22:42:53.513Z,11.30
2018-12-02T22:45:21.500Z,11.15
2018-12-02T22:47:49.203Z,11.70
2018-12-02T22:50:17.210Z,11.80
2018-12-02T22:52:45.548Z,11.22
2018-12-02T22:55:13.312Z,11.53
2018-12-02T22:57:40.690Z,11.70
2018-12-02T23:00:18.676Z,11.57
2018-12-02T23:02:52.122Z,11.90
2018-12-02T23:05:19.708Z,11.48
2018-12-02T23:07:47.184Z,11.48
2018-12-02T23:10:14.719Z,11.43
2018-12-02T23:12:42.102Z,12.30
2018-12-02T23:15:10.932Z,11.65
2018-12-02T23:17:38.584Z,11.67
2018-12-02T23:20:07.424Z,11.75
2018-12-02T23:22:35.096Z,12.47
2018-12-02T23:25:02.434Z,11.97
2018-12-02T23:27:30.623Z,11.90
2018-12-02T23:29:58.023Z,11.48
2018-12-02T23:32:26.165Z,11.60
2018-12-02T23:34:54.151Z,11.60
2018-12-02T23:37:21.778Z,12.90
2018-12-02T23:39:49.454Z,12.33
2018-12-02T23:42:17.232Z,12.30
2018-12-02T23:44:45.071Z,12.30
2018-12-02T23:47:13.064Z,12.47
2018-12-02T23:49:40.470Z,13.35
2018-12-02T23:52:07.989Z,13.43
2018-12-02T23:54:35.648Z,13.22
2018-12-02T23:57:03.284Z,13.60
2018-12-02T23:59:30.874Z,13.62
